Latest Coastal Weather Observations for Frederick Reef

IDQ60701

Issued at 2:12 pm EST Tuesday 26 May 2020 (issued every 10 minutes, with the page automatically refreshed every 10 minutes)

About coastal observations | Map of coastal stations | Coastal observations for QLD | Marine services | Other Formats
Station Details ID: 200701 Name: FREDERICK REEF Lat: -20.94 Lon: 154.40 Height: 4.9 m
Data from the previous 72 hours. | See also: Recent months at Frederick Reef
Date/Time
EST
Wind Sea
Height
m
Swell Vis
km
Cloud Weather Temp
°C
Press
hPa
Rain since
9am
mm
Dir  Spd
kts
Gust
kts
Height
m
Period
s
Dir
26/02:00pm S 7 10 - - - - - - - 22.1 1017.0 -
26/01:30pm SW 7 8 - - - - - - - 22.0 1017.1 -
26/01:00pm WSW 6 7 - - - - - - - 22.0 1017.3 -
26/12:30pm SW 7 8 - - - - - - - 21.9 1017.8 -
26/12:00pm WSW 5 7 - - - - - - - 21.9 1018.2 -
26/11:30am WSW 4 6 - - - - - - - 22.0 1018.7 -
26/11:00am WSW 4 6 - - - - - - - 22.0 1019.0 -
26/10:30am WSW 2 5 - - - - - - - 22.2 1019.5 -
26/10:00am WSW 5 7 - - - - - - - 21.9 1019.7 -
26/09:30am WSW 4 6 - - - - - - - 22.0 1019.7 -
26/09:00am WSW 4 6 - - - - - - - 21.9 1019.8 -
26/08:30am WSW 5 7 - - - - - - - 21.8 1019.6 -
26/08:00am WSW 5 7 - - - - - - - 21.7 1019.5 -
26/07:30am WSW 4 6 - - - - - - - 21.8 1019.1 -
26/07:00am WSW 5 8 - - - - - - - 21.6 1018.8 -
26/06:30am SW 5 7 - - - - - - - 21.3 1018.3 -
26/06:00am SW 6 8 - - - - - - - 21.3 1017.7 -
26/05:30am SW 5 9 - - - - - - - 21.3 1017.5 -
26/05:00am SW 4 5 - - - - - - - 21.2 1017.4 -
26/04:30am SSW 5 7 - - - - - - - 21.2 1017.4 -
26/04:00am WSW 5 6 - - - - - - - 21.2 1017.4 -
26/03:30am SW 6 8 - - - - - - - 21.2 1017.4 -
26/03:00am WSW 7 11 - - - - - - - 21.3 1017.4 -
26/02:30am SW 6 8 - - - - - - - 21.2 1017.2 -
26/02:00am SW 7 9 - - - - - - - 21.3 1017.4 -
26/01:30am WSW 5 8 - - - - - - - 21.5 1017.7 -
26/01:00am WSW 7 9 - - - - - - - 21.4 1017.7 -
26/12:30am WSW 8 10 - - - - - - - 21.4 1017.8 -
26/12:00am WSW 5 7 - - - - - - - 21.5 1017.9 -
 
Date/Time
EST
Wind Sea
Height
m
Swell Vis
km
Cloud Weather Temp
°C
Press
hPa
Rain since
9am
mm
Dir  Spd
kts
Gust
kts
Height
m
Period
s
Dir
25/11:30pm SW 6 8 - - - - - - - 21.3 1017.9 -
25/11:00pm WSW 8 11 - - - - - - - 21.4 1017.8 -
25/10:30pm SW 5 7 - - - - - - - 21.4 1018.0 -
25/10:00pm WSW 6 8 - - - - - - - 21.5 1018.1 -
25/09:30pm WSW 6 7 - - - - - - - 21.4 1018.2 -
25/09:00pm W 5 7 - - - - - - - 21.5 1018.1 -
25/08:30pm W 6 8 - - - - - - - 21.6 1018.0 -
25/08:00pm W 7 10 - - - - - - - 21.6 1017.8 -
25/07:30pm WSW 7 10 - - - - - - - 21.5 1017.3 -
25/07:00pm W 7 10 - - - - - - - 21.6 1016.9 -
25/06:30pm WSW 6 7 - - - - - - - 21.5 1016.7 -
25/06:00pm WSW 6 7 - - - - - - - 21.6 1016.4 -
25/05:30pm WSW 2 5 - - - - - - - 21.4 1016.1 -
25/05:00pm W 5 9 - - - - - - - 21.8 1015.8 -
25/04:30pm W 7 10 - - - - - - - 21.9 1015.7 -
25/04:00pm W 7 9 - - - - - - - 22.0 1015.5 -
25/03:30pm WSW 8 11 - - - - - - - 21.7 1015.1 -
25/03:00pm WSW 9 12 - - - - - - - 21.7 1015.1 -
25/02:30pm WSW 8 11 - - - - - - - 21.8 1015.3 -
25/02:00pm WSW 9 11 - - - - - - - 21.8 1015.3 -
25/01:30pm WSW 8 11 - - - - - - - 21.6 1015.4 -
25/01:00pm WSW 9 12 - - - - - - - 21.9 1015.4 -
25/12:30pm WSW 11 13 - - - - - - - 21.6 1015.7 -
25/12:00pm WSW 11 14 - - - - - - - 21.7 1015.9 -
25/11:30am WSW 11 14 - - - - - - - 21.6 1016.2 -
25/11:00am WSW 10 13 - - - - - - - 21.8 1016.6 -
25/10:30am WSW 10 14 - - - - - - - 21.8 1016.8 -
25/10:00am WSW 10 14 - - - - - - - 21.5 1016.7 -
25/09:30am WNW 8 10 - - - - - - - 21.6 1017.3 -
25/09:00am WNW 9 12 - - - - - - - 21.4 1016.7 -
25/08:30am W 9 12 - - - - - - - 21.2 1016.6 -
25/08:00am W 10 14 - - - - - - - 21.2 1016.5 -
25/07:30am W 10 13 - - - - - - - 21.2 1016.3 -
25/07:00am W 9 12 - - - - - - - 21.2 1016.1 -
25/06:30am W 9 12 - - - - - - - 21.2 1015.7 -
25/06:00am W 9 14 - - - - - - - 21.2 1015.5 -
25/05:30am WSW 9 15 - - - - - - - 21.1 1014.6 -
25/05:00am W 11 14 - - - - - - - 20.8 1014.7 -
25/04:30am WSW 12 15 - - - - - - - 20.7 1014.1 -
25/04:00am W 10 13 - - - - - - - 20.9 1015.0 -
25/03:30am WSW 11 14 - - - - - - - 20.8 1013.9 -
25/03:00am WSW 13 18 - - - - - - - 20.8 1014.6 -
25/02:30am W 11 14 - - - - - - - 20.8 1014.5 -
25/02:00am WSW 12 15 - - - - - - - 20.6 1014.2 -
25/01:30am WSW 12 16 - - - - - - - 20.9 1014.5 -
25/01:00am WSW 14 19 - - - - - - - 20.8 1015.0 -
25/12:30am WSW 14 17 - - - - - - - 21.0 1014.8 -
25/12:00am WSW 16 19 - - - - - - - 20.8 1014.8 -
 
Date/Time
EST
Wind Sea
Height
m
Swell Vis
km
Cloud Weather Temp
°C
Press
hPa
Rain since
9am
mm
Dir  Spd
kts
Gust
kts
Height
m
Period
s
Dir
24/11:30pm WSW 15 17 - - - - - - - 21.0 1015.1 -
24/11:00pm WSW 15 18 - - - - - - - 21.0 1015.8 -
24/10:30pm WSW 11 16 - - - - - - - 21.1 1015.3 -
24/10:00pm W 13 18 - - - - - - - 21.0 1015.8 -
24/09:30pm W 12 14 - - - - - - - 20.9 1014.2 -
24/09:00pm W 12 15 - - - - - - - 21.0 1014.0 -
24/08:30pm WSW 14 17 - - - - - - - 21.4 1015.4 -
24/08:24pm SW 10 15 - - - - - - - 21.3 1015.0 -
24/08:18pm WSW 10 13 - - - - - - - 21.0 1012.9 -
24/08:00pm W 12 15 - - - - - - - 21.3 1014.9 -
24/07:30pm W 9 13 - - - - - - - 21.4 1015.5 -
24/07:00pm WNW 7 10 - - - - - - - 21.2 1014.3 -
24/06:30pm W 9 11 - - - - - - - 21.1 1014.1 -
24/06:00pm SW 8 13 - - - - - - - 21.0 1013.7 -
24/05:30pm WSW 10 14 - - - - - - - 21.0 1012.9 -
24/05:00pm WSW 12 15 - - - - - - - 21.0 1012.7 -
24/04:37pm WSW 10 13 - - - - - - - 21.2 1013.3 -
24/04:30pm SW 9 14 - - - - - - - 20.9 1011.2 -
24/04:18pm SSW 11 14 - - - - - - - 20.7 1010.3 -
24/04:00pm SW 10 13 - - - - - - - 21.0 1012.4 -
24/03:30pm WSW 11 15 - - - - - - - 21.0 1012.8 -
24/03:00pm WSW 11 13 - - - - - - - 21.0 1011.4 -
24/02:30pm WSW 11 15 - - - - - - - 20.9 1010.5 -
24/02:00pm WSW 16 20 - - - - - - - 21.1 1011.7 -
24/01:30pm WSW 13 18 - - - - - - - 20.9 1011.8 -
24/01:00pm SW 12 19 - - - - - - - 21.2 1011.6 -
24/12:53pm WSW 9 16 - - - - - - - 20.7 1010.4 -
24/12:30pm WSW 9 17 - - - - - - - 20.5 1012.5 -
24/12:00pm WSW 11 17 - - - - - - - 20.3 1013.0 -
24/11:30am W 11 14 - - - - - - - 20.0 1013.4 -
24/11:00am W 12 15 - - - - - - - 19.9 1013.9 -
24/10:30am W 10 13 - - - - - - - 19.6 1014.2 -
24/10:00am WSW 10 13 - - - - - - - 19.0 1014.1 -
24/09:30am WSW 7 11 - - - - - - - 18.6 1013.7 -
24/09:00am W 19 23 - - - - - - - 18.9 1015.1 -
24/08:30am W 21 24 - - - - - - - 18.4 1014.7 -
24/08:00am WSW 24 28 - - - - - - - 17.6 1013.5 -
24/07:48am W 16 22 - - - - - - - 18.6 1014.3 -
24/07:44am W 13 20 - - - - - - - 18.4 1014.2 -
24/07:30am SW 7 11 - - - - - - - 17.6 1014.0 -
24/07:00am NNW 9 13 - - - - - - - 17.9 1012.9 -
24/06:30am WSW 2 5 - - - - - - - 17.6 1012.2 -
24/06:00am W 9 10 - - - - - - - 17.8 1013.1 -
24/05:30am WNW 9 11 - - - - - - - 17.8 1013.1 -
24/05:00am W 9 12 - - - - - - - 18.4 1011.7 -
24/04:30am W 11 14 - - - - - - - 18.5 1011.3 -
24/04:00am W 13 18 - - - - - - - 18.6 1011.6 -
24/03:30am W 9 11 - - - - - - - 18.5 1012.0 -
24/03:00am W 12 14 - - - - - - - 18.8 1012.1 -
24/02:30am W 13 15 - - - - - - - 18.4 1012.1 -
24/02:00am W 16 19 - - - - - - - 19.3 1012.5 -
24/01:30am W 20 22 - - - - - - - 19.3 1012.5 -
24/01:00am W 16 19 - - - - - - - 19.4 1012.6 -
24/12:30am W 20 23 - - - - - - - 19.8 1013.2 -
24/12:00am W 21 25 - - - - - - - 19.7 1014.0 -
 
Date/Time
EST
Wind Sea
Height
m
Swell Vis
km
Cloud Weather Temp
°C
Press
hPa
Rain since
9am
mm
Dir  Spd
kts
Gust
kts
Height
m
Period
s
Dir
23/11:56pm W 20 23 - - - - - - - 19.8 1014.0 -
23/11:55pm W 20 23 - - - - - - - 20.0 1013.9 -
23/11:30pm SW 12 15 - - - - - - - 19.8 1013.4 -
23/11:00pm SW 15 18 - - - - - - - 19.4 1013.7 -
23/10:30pm SW 14 16 - - - - - - - 20.0 1013.8 -
23/10:00pm SW 15 19 - - - - - - - 20.2 1013.4 -
23/09:30pm SSW 15 20 - - - - - - - 20.2 1014.0 -
23/09:00pm SW 18 19 - - - - - - - 20.5 1014.0 -
23/08:30pm SW 19 22 - - - - - - - 20.9 1013.7 -
23/08:00pm SW 18 21 - - - - - - - 20.3 1013.0 -
23/07:30pm SW 17 21 - - - - - - - 20.4 1012.9 -
23/07:00pm SW 21 25 - - - - - - - 19.7 1013.0 -
23/06:49pm SW 21 25 - - - - - - - 20.2 1012.9 -
23/06:48pm SW 18 24 - - - - - - - 20.0 1012.9 -
23/06:30pm SW 10 14 - - - - - - - 20.1 1012.5 -
23/06:00pm SW 15 18 - - - - - - - 19.3 1012.2 -
23/05:30pm WSW 15 17 - - - - - - - 20.2 1012.0 -
23/05:00pm SSW 10 12 - - - - - - - 19.9 1011.4 -
23/04:30pm SSW 8 10 - - - - - - - 19.9 1011.6 -
23/04:00pm SW 8 11 - - - - - - - 19.6 1011.1 -
23/03:30pm SW 8 9 - - - - - - - 19.9 1011.0 -
23/03:00pm SSW 6 7 - - - - - - - 19.7 1010.3 -
23/02:30pm SSW 6 8 - - - - - - - 19.3 1010.4 -

Other formats

Comma delimited format used in spreadsheet applications
http://www.bom.gov.au/fwo/IDQ60701/IDQ60701.94393.axf

JavaScript Object Notation format (JSON) in row-major order
http://www.bom.gov.au/fwo/IDQ60701/IDQ60701.94393.json

Data quality

Most of these data are generated automatically and are frequently updated. Quality checks on data are not normally performed. It is possible for incorrect values to appear. Refer to information at About Latest Weather Observations and please check the disclaimer before using these data.